sensor_id;sensor_type;location;lat;lon;timestamp;temperature;humidity
23124;DHT22;11731;48.592;8.858;2023-04-16T03:49:44;7.50;99.90
23124;DHT22;11731;48.592;8.858;2023-04-16T03:52:26;7.60;99.90
23124;DHT22;11731;48.592;8.858;2023-04-16T03:54:53;7.80;99.90
23124;DHT22;11731;48.592;8.858;2023-04-16T03:57:55;7.70;99.90
23124;DHT22;11731;48.592;8.858;2023-04-16T04:03:36;7.90;99.90
23124;DHT22;11731;48.592;8.858;2023-04-16T04:12:24;7.70;99.90
23124;DHT22;11731;48.592;8.858;2023-04-16T04:15:25;7.60;99.90
23124;DHT22;11731;48.592;8.858;2023-04-16T04:18:22;7.60;99.90
23124;DHT22;11731;48.592;8.858;2023-04-16T04:20:51;7.60;99.90
23124;DHT22;11731;48.592;8.858;2023-04-16T04:23:32;7.70;99.90
23124;DHT22;11731;48.592;8.858;2023-04-16T04:25:59;7.60;99.90
23124;DHT22;11731;48.592;8.858;2023-04-16T04:28:33;7.60;99.90
23124;DHT22;11731;48.592;8.858;2023-04-16T04:31:17;7.60;99.90
23124;DHT22;11731;48.592;8.858;2023-04-16T04:33:44;7.60;99.90
23124;DHT22;11731;48.592;8.858;2023-04-16T04:36:45;7.60;99.90
23124;DHT22;11731;48.592;8.858;2023-04-16T04:39:15;7.40;99.90
23124;DHT22;11731;48.592;8.858;2023-04-16T04:42:52;7.50;99.90
23124;DHT22;11731;48.592;8.858;2023-04-16T04:45:11;7.50;99.90
23124;DHT22;11731;48.592;8.858;2023-04-16T04:48:50;7.60;99.90
23124;DHT22;11731;48.592;8.858;2023-04-16T04:51:07;7.60;99.90
23124;DHT22;11731;48.592;8.858;2023-04-16T04:57:28;7.70;99.90
23124;DHT22;11731;48.592;8.858;2023-04-16T05:00:07;7.60;99.90
23124;DHT22;11731;48.592;8.858;2023-04-16T05:02:40;7.50;99.90
23124;DHT22;11731;48.592;8.858;2023-04-16T05:05:28;7.50;99.90
23124;DHT22;11731;48.592;8.858;2023-04-16T05:08:05;7.50;99.90
23124;DHT22;11731;48.592;8.858;2023-04-16T05:10:34;7.60;99.90
23124;DHT22;11731;48.592;8.858;2023-04-16T05:13:20;7.50;99.90
23124;DHT22;11731;48.592;8.858;2023-04-16T05:15:57;7.50;99.90
23124;DHT22;11731;48.592;8.858;2023-04-16T05:18:51;7.50;99.90
23124;DHT22;11731;48.592;8.858;2023-04-16T05:21:21;7.70;99.90
23124;DHT22;11731;48.592;8.858;2023-04-16T05:23:48;7.70;99.90
23124;DHT22;11731;48.592;8.858;2023-04-16T05:26:43;7.60;99.90
23124;DHT22;11731;48.592;8.858;2023-04-16T05:29:21;7.70;99.90
23124;DHT22;11731;48.592;8.858;2023-04-16T05:31:55;7.50;99.90
23124;DHT22;11731;48.592;8.858;2023-04-16T05:34:48;7.50;99.90
23124;DHT22;11731;48.592;8.858;2023-04-16T05:37:15;7.60;99.90
23124;DHT22;11731;48.592;8.858;2023-04-16T05:39:42;7.50;99.90
23124;DHT22;11731;48.592;8.858;2023-04-16T05:42:12;7.30;99.90
23124;DHT22;11731;48.592;8.858;2023-04-16T05:44:42;7.40;99.90
23124;DHT22;11731;48.592;8.858;2023-04-16T05:47:09;7.40;99.90
23124;DHT22;11731;48.592;8.858;2023-04-16T05:49:36;7.60;99.90
23124;DHT22;11731;48.592;8.858;2023-04-16T05:52:12;7.80;99.90
23124;DHT22;11731;48.592;8.858;2023-04-16T05:54:49;7.60;99.90
23124;DHT22;11731;48.592;8.858;2023-04-16T05:57:16;7.50;99.90
23124;DHT22;11731;48.592;8.858;2023-04-16T05:59:43;7.50;99.90
23124;DHT22;11731;48.592;8.858;2023-04-16T06:02:10;7.50;99.90
23124;DHT22;11731;48.592;8.858;2023-04-16T06:04:37;7.80;99.90
23124;DHT22;11731;48.592;8.858;2023-04-16T06:07:05;7.80;99.90
23124;DHT22;11731;48.592;8.858;2023-04-16T06:09:53;7.80;99.90
23124;DHT22;11731;48.592;8.858;2023-04-16T06:12:24;7.70;99.90
23124;DHT22;11731;48.592;8.858;2023-04-16T06:14:51;7.50;99.90
23124;DHT22;11731;48.592;8.858;2023-04-16T06:17:21;7.30;99.90
23124;DHT22;11731;48.592;8.858;2023-04-16T06:19:52;7.40;99.90
23124;DHT22;11731;48.592;8.858;2023-04-16T06:22:21;7.30;99.90
23124;DHT22;11731;48.592;8.858;2023-04-16T06:24:51;7.30;99.90
23124;DHT22;11731;48.592;8.858;2023-04-16T06:27:18;7.40;99.90
23124;DHT22;11731;48.592;8.858;2023-04-16T06:29:45;7.40;99.90
23124;DHT22;11731;48.592;8.858;2023-04-16T06:32:29;7.40;99.90
23124;DHT22;11731;48.592;8.858;2023-04-16T06:35:04;7.50;99.90
23124;DHT22;11731;48.592;8.858;2023-04-16T06:37:33;7.30;99.90
23124;DHT22;11731;48.592;8.858;2023-04-16T06:40:00;7.50;99.90
23124;DHT22;11731;48.592;8.858;2023-04-16T06:42:27;7.40;99.90
23124;DHT22;11731;48.592;8.858;2023-04-16T06:44:54;7.30;99.90
23124;DHT22;11731;48.592;8.858;2023-04-16T06:47:21;7.30;99.90
23124;DHT22;11731;48.592;8.858;2023-04-16T06:49:48;7.30;99.90
23124;DHT22;11731;48.592;8.858;2023-04-16T06:52:15;7.20;99.90
23124;DHT22;11731;48.592;8.858;2023-04-16T06:54:43;7.30;99.90
23124;DHT22;11731;48.592;8.858;2023-04-16T06:57:24;7.20;99.90
23124;DHT22;11731;48.592;8.858;2023-04-16T06:59:51;7.30;99.90
23124;DHT22;11731;48.592;8.858;2023-04-16T07:02:18;7.30;99.90
23124;DHT22;11731;48.592;8.858;2023-04-16T07:04:45;7.40;99.90
23124;DHT22;11731;48.592;8.858;2023-04-16T07:07:12;7.10;99.90
23124;DHT22;11731;48.592;8.858;2023-04-16T07:09:39;7.30;99.90
23124;DHT22;11731;48.592;8.858;2023-04-16T07:12:09;7.20;99.90
23124;DHT22;11731;48.592;8.858;2023-04-16T07:14:37;7.20;99.90
23124;DHT22;11731;48.592;8.858;2023-04-16T07:17:03;7.10;99.90
23124;DHT22;11731;48.592;8.858;2023-04-16T07:19:30;7.30;99.90
23124;DHT22;11731;48.592;8.858;2023-04-16T07:21:57;7.50;99.90
23124;DHT22;11731;48.592;8.858;2023-04-16T07:24:24;7.30;99.90
23124;DHT22;11731;48.592;8.858;2023-04-16T07:27:00;7.20;99.90
23124;DHT22;11731;48.592;8.858;2023-04-16T07:29:28;7.30;99.90
23124;DHT22;11731;48.592;8.858;2023-04-16T07:31:56;7.40;99.90
23124;DHT22;11731;48.592;8.858;2023-04-16T07:34:23;7.40;99.90
23124;DHT22;11731;48.592;8.858;2023-04-16T07:36:50;7.50;99.90
23124;DHT22;11731;48.592;8.858;2023-04-16T07:39:17;7.60;99.90
23124;DHT22;11731;48.592;8.858;2023-04-16T07:41:44;7.60;99.90
23124;DHT22;11731;48.592;8.858;2023-04-16T07:44:10;7.70;99.90
23124;DHT22;11731;48.592;8.858;2023-04-16T07:46:39;7.70;99.90
23124;DHT22;11731;48.592;8.858;2023-04-16T07:49:08;7.80;99.90
23124;DHT22;11731;48.592;8.858;2023-04-16T07:51:39;7.80;99.90
23124;DHT22;11731;48.592;8.858;2023-04-16T07:54:06;7.80;99.90
23124;DHT22;11731;48.592;8.858;2023-04-16T07:56:36;8.10;99.90
23124;DHT22;11731;48.592;8.858;2023-04-16T07:59:03;8.00;99.90
23124;DHT22;11731;48.592;8.858;2023-04-16T08:01:31;7.80;99.90
23124;DHT22;11731;48.592;8.858;2023-04-16T08:04:11;7.60;99.90
23124;DHT22;11731;48.592;8.858;2023-04-16T08:06:39;7.60;99.90
23124;DHT22;11731;48.592;8.858;2023-04-16T08:09:08;7.40;99.90
23124;DHT22;11731;48.592;8.858;2023-04-16T08:11:36;7.60;99.90
23124;DHT22;11731;48.592;8.858;2023-04-16T08:14:03;7.60;99.90
23124;DHT22;11731;48.592;8.858;2023-04-16T08:16:30;7.60;99.90
23124;DHT22;11731;48.592;8.858;2023-04-16T08:18:57;7.60;99.90
23124;DHT22;11731;48.592;8.858;2023-04-16T08:21:50;7.80;99.90
23124;DHT22;11731;48.592;8.858;2023-04-16T08:24:19;7.80;99.90
23124;DHT22;11731;48.592;8.858;2023-04-16T08:26:46;7.60;99.90
23124;DHT22;11731;48.592;8.858;2023-04-16T08:29:15;7.60;99.90
23124;DHT22;11731;48.592;8.858;2023-04-16T08:31:42;7.70;99.90
23124;DHT22;11731;48.592;8.858;2023-04-16T08:34:10;7.70;99.90
23124;DHT22;11731;48.592;8.858;2023-04-16T08:36:37;7.80;99.90
23124;DHT22;11731;48.592;8.858;2023-04-16T08:39:05;7.90;99.90
23124;DHT22;11731;48.592;8.858;2023-04-16T08:41:36;8.00;99.90
23124;DHT22;11731;48.592;8.858;2023-04-16T08:44:08;7.90;99.90
23124;DHT22;11731;48.592;8.858;2023-04-16T08:46:36;7.70;99.90
23124;DHT22;11731;48.592;8.858;2023-04-16T08:49:07;7.70;99.90
23124;DHT22;11731;48.592;8.858;2023-04-16T08:51:34;8.00;99.90
23124;DHT22;11731;48.592;8.858;2023-04-16T08:54:07;7.90;99.90
23124;DHT22;11731;48.592;8.858;2023-04-16T08:56:36;7.90;99.90
23124;DHT22;11731;48.592;8.858;2023-04-16T08:59:04;8.00;99.90
23124;DHT22;11731;48.592;8.858;2023-04-16T09:01:36;8.10;99.90
23124;DHT22;11731;48.592;8.858;2023-04-16T09:04:05;8.10;99.90
23124;DHT22;11731;48.592;8.858;2023-04-16T09:06:32;8.10;99.90
23124;DHT22;11731;48.592;8.858;2023-04-16T09:09:00;8.00;99.90
23124;DHT22;11731;48.592;8.858;2023-04-16T09:11:30;8.30;99.90
23124;DHT22;11731;48.592;8.858;2023-04-16T09:13:58;8.30;99.90
23124;DHT22;11731;48.592;8.858;2023-04-16T09:16:27;8.20;99.90
23124;DHT22;11731;48.592;8.858;2023-04-16T09:18:57;8.50;99.90
23124;DHT22;11731;48.592;8.858;2023-04-16T09:21:25;8.50;99.90
23124;DHT22;11731;48.592;8.858;2023-04-16T09:23:52;8.80;99.90
23124;DHT22;11731;48.592;8.858;2023-04-16T09:26:19;9.10;99.90
23124;DHT22;11731;48.592;8.858;2023-04-16T09:28:48;9.00;99.90
23124;DHT22;11731;48.592;8.858;2023-04-16T09:31:16;9.10;99.90
23124;DHT22;11731;48.592;8.858;2023-04-16T09:34:00;9.00;99.90
23124;DHT22;11731;48.592;8.858;2023-04-16T09:36:31;9.10;99.90
23124;DHT22;11731;48.592;8.858;2023-04-16T09:39:05;9.00;99.90
23124;DHT22;11731;48.592;8.858;2023-04-16T09:41:33;9.00;99.90
23124;DHT22;11731;48.592;8.858;2023-04-16T09:44:05;9.10;99.90
23124;DHT22;11731;48.592;8.858;2023-04-16T09:46:34;9.30;99.90
23124;DHT22;11731;48.592;8.858;2023-04-16T09:49:04;9.40;99.90
23124;DHT22;11731;48.592;8.858;2023-04-16T09:51:36;9.00;99.90
23124;DHT22;11731;48.592;8.858;2023-04-16T09:54:04;8.80;99.90
23124;DHT22;11731;48.592;8.858;2023-04-16T09:56:31;8.90;99.90
23124;DHT22;11731;48.592;8.858;2023-04-16T09:59:31;9.20;99.90
23124;DHT22;11731;48.592;8.858;2023-04-16T10:02:15;9.10;99.90
23124;DHT22;11731;48.592;8.858;2023-04-16T10:04:46;8.90;99.90
23124;DHT22;11731;48.592;8.858;2023-04-16T10:07:13;8.90;99.90
23124;DHT22;11731;48.592;8.858;2023-04-16T10:09:41;9.10;99.90
23124;DHT22;11731;48.592;8.858;2023-04-16T10:12:08;9.00;99.90
23124;DHT22;11731;48.592;8.858;2023-04-16T10:14:38;9.00;99.90
23124;DHT22;11731;48.592;8.858;2023-04-16T10:17:05;9.10;99.90
23124;DHT22;11731;48.592;8.858;2023-04-16T10:19:33;9.10;99.90
23124;DHT22;11731;48.592;8.858;2023-04-16T10:22:00;9.00;99.90
23124;DHT22;11731;48.592;8.858;2023-04-16T10:24:27;9.10;99.90
23124;DHT22;11731;48.592;8.858;2023-04-16T10:26:55;9.10;99.90
23124;DHT22;11731;48.592;8.858;2023-04-16T10:29:22;9.30;99.90
23124;DHT22;11731;48.592;8.858;2023-04-16T10:31:52;9.20;99.90
23124;DHT22;11731;48.592;8.858;2023-04-16T10:34:20;9.10;99.90
23124;DHT22;11731;48.592;8.858;2023-04-16T10:36:48;8.80;99.90
23124;DHT22;11731;48.592;8.858;2023-04-16T10:39:17;8.70;99.90
23124;DHT22;11731;48.592;8.858;2023-04-16T10:41:45;8.80;99.90
23124;DHT22;11731;48.592;8.858;2023-04-16T10:44:12;8.90;99.90
23124;DHT22;11731;48.592;8.858;2023-04-16T10:46:39;9.00;99.90
23124;DHT22;11731;48.592;8.858;2023-04-16T10:49:15;8.80;99.90
23124;DHT22;11731;48.592;8.858;2023-04-16T10:51:51;8.90;99.90
23124;DHT22;11731;48.592;8.858;2023-04-16T10:54:20;9.10;99.90
23124;DHT22;11731;48.592;8.858;2023-04-16T10:56:49;9.00;99.90
23124;DHT22;11731;48.592;8.858;2023-04-16T10:59:17;8.90;99.90
23124;DHT22;11731;48.592;8.858;2023-04-16T11:01:46;8.70;99.90
23124;DHT22;11731;48.592;8.858;2023-04-16T11:04:31;8.60;99.90
23124;DHT22;11731;48.592;8.858;2023-04-16T11:07:17;8.80;99.90
23124;DHT22;11731;48.592;8.858;2023-04-16T11:09:50;8.80;99.90
23124;DHT22;11731;48.592;8.858;2023-04-16T11:12:18;9.00;99.90
23124;DHT22;11731;48.592;8.858;2023-04-16T11:14:47;8.70;99.90
23124;DHT22;11731;48.592;8.858;2023-04-16T11:17:14;8.70;99.90
23124;DHT22;11731;48.592;8.858;2023-04-16T11:19:43;8.70;99.90
23124;DHT22;11731;48.592;8.858;2023-04-16T11:22:12;9.00;99.90
23124;DHT22;11731;48.592;8.858;2023-04-16T11:24:42;9.30;99.90
23124;DHT22;11731;48.592;8.858;2023-04-16T11:27:10;9.20;99.90
23124;DHT22;11731;48.592;8.858;2023-04-16T11:29:37;9.10;99.90
23124;DHT22;11731;48.592;8.858;2023-04-16T11:32:04;9.00;99.90
23124;DHT22;11731;48.592;8.858;2023-04-16T11:34:31;8.80;99.90
23124;DHT22;11731;48.592;8.858;2023-04-16T11:37:00;8.90;99.90
23124;DHT22;11731;48.592;8.858;2023-04-16T11:39:27;8.80;99.90
23124;DHT22;11731;48.592;8.858;2023-04-16T11:41:54;8.70;99.90
23124;DHT22;11731;48.592;8.858;2023-04-16T11:44:22;8.90;99.90
23124;DHT22;11731;48.592;8.858;2023-04-16T11:46:50;9.10;99.90
23124;DHT22;11731;48.592;8.858;2023-04-16T11:49:18;9.30;99.90
23124;DHT22;11731;48.592;8.858;2023-04-16T11:51:52;9.20;99.90
23124;DHT22;11731;48.592;8.858;2023-04-16T11:54:22;8.90;99.90
23124;DHT22;11731;48.592;8.858;2023-04-16T11:56:51;8.90;99.90
23124;DHT22;11731;48.592;8.858;2023-04-16T11:59:20;8.90;99.90
23124;DHT22;11731;48.592;8.858;2023-04-16T12:01:48;9.00;99.90
23124;DHT22;11731;48.592;8.858;2023-04-16T12:04:17;9.20;99.90
23124;DHT22;11731;48.592;8.858;2023-04-16T12:07:06;9.30;99.90
23124;DHT22;11731;48.592;8.858;2023-04-16T12:09:35;9.20;99.90
23124;DHT22;11731;48.592;8.858;2023-04-16T12:12:02;9.40;99.90
23124;DHT22;11731;48.592;8.858;2023-04-16T12:14:30;9.50;99.90
23124;DHT22;11731;48.592;8.858;2023-04-16T12:17:15;9.70;99.90
23124;DHT22;11731;48.592;8.858;2023-04-16T12:19:48;9.80;99.90
23124;DHT22;11731;48.592;8.858;2023-04-16T12:22:15;9.80;99.90
23124;DHT22;11731;48.592;8.858;2023-04-16T12:24:43;9.70;99.90
23124;DHT22;11731;48.592;8.858;2023-04-16T12:27:10;9.80;99.90
23124;DHT22;11731;48.592;8.858;2023-04-16T12:29:37;9.80;99.90
23124;DHT22;11731;48.592;8.858;2023-04-16T12:32:04;9.70;99.90
23124;DHT22;11731;48.592;8.858;2023-04-16T12:34:49;9.60;99.90
23124;DHT22;11731;48.592;8.858;2023-04-16T12:37:16;9.60;99.90
23124;DHT22;11731;48.592;8.858;2023-04-16T12:39:45;9.50;99.90
23124;DHT22;11731;48.592;8.858;2023-04-16T12:42:11;9.50;99.90
23124;DHT22;11731;48.592;8.858;2023-04-16T12:44:39;9.70;99.90
23124;DHT22;11731;48.592;8.858;2023-04-16T12:47:06;9.50;99.90
23124;DHT22;11731;48.592;8.858;2023-04-16T12:49:33;9.30;99.90
23124;DHT22;11731;48.592;8.858;2023-04-16T12:52:01;9.10;99.90
23124;DHT22;11731;48.592;8.858;2023-04-16T12:54:28;9.00;99.90
23124;DHT22;11731;48.592;8.858;2023-04-16T12:56:57;9.10;99.90
23124;DHT22;11731;48.592;8.858;2023-04-16T12:59:24;9.20;99.90
23124;DHT22;11731;48.592;8.858;2023-04-16T13:01:50;9.50;99.90
23124;DHT22;11731;48.592;8.858;2023-04-16T13:04:17;9.50;99.90
23124;DHT22;11731;48.592;8.858;2023-04-16T13:06:44;9.30;99.90
23124;DHT22;11731;48.592;8.858;2023-04-16T13:09:11;9.40;99.90
23124;DHT22;11731;48.592;8.858;2023-04-16T13:11:38;9.60;99.90
23124;DHT22;11731;48.592;8.858;2023-04-16T13:14:06;9.90;99.90
23124;DHT22;11731;48.592;8.858;2023-04-16T13:16:33;9.90;99.90
23124;DHT22;11731;48.592;8.858;2023-04-16T13:19:03;9.90;99.90
23124;DHT22;11731;48.592;8.858;2023-04-16T13:21:30;10.10;99.90
23124;DHT22;11731;48.592;8.858;2023-04-16T13:23:57;9.90;99.90
23124;DHT22;11731;48.592;8.858;2023-04-16T13:26:24;9.50;99.90
23124;DHT22;11731;48.592;8.858;2023-04-16T13:28:51;9.60;99.90
23124;DHT22;11731;48.592;8.858;2023-04-16T13:31:20;9.80;99.90
23124;DHT22;11731;48.592;8.858;2023-04-16T13:33:47;9.80;99.90
23124;DHT22;11731;48.592;8.858;2023-04-16T13:36:14;9.70;99.90
23124;DHT22;11731;48.592;8.858;2023-04-16T13:38:41;9.90;99.90
23124;DHT22;11731;48.592;8.858;2023-04-16T13:41:08;10.10;99.90
23124;DHT22;11731;48.592;8.858;2023-04-16T13:43:36;10.00;99.90
23124;DHT22;11731;48.592;8.858;2023-04-16T13:46:03;10.00;99.90
23124;DHT22;11731;48.592;8.858;2023-04-16T13:48:31;10.00;99.90
23124;DHT22;11731;48.592;8.858;2023-04-16T13:50:58;10.10;99.90
23124;DHT22;11731;48.592;8.858;2023-04-16T13:53:25;10.50;99.90
23124;DHT22;11731;48.592;8.858;2023-04-16T13:55:52;10.40;99.90
23124;DHT22;11731;48.592;8.858;2023-04-16T13:58:18;10.10;99.90
23124;DHT22;11731;48.592;8.858;2023-04-16T14:00:45;10.10;99.90
23124;DHT22;11731;48.592;8.858;2023-04-16T14:03:12;10.00;99.90
23124;DHT22;11731;48.592;8.858;2023-04-16T14:05:41;10.00;99.90
23124;DHT22;11731;48.592;8.858;2023-04-16T14:08:08;9.90;99.90
23124;DHT22;11731;48.592;8.858;2023-04-16T14:10:35;9.90;99.90
23124;DHT22;11731;48.592;8.858;2023-04-16T14:13:02;9.70;99.90
23124;DHT22;11731;48.592;8.858;2023-04-16T14:15:29;9.70;99.90
23124;DHT22;11731;48.592;8.858;2023-04-16T14:17:56;9.80;99.90
23124;DHT22;11731;48.592;8.858;2023-04-16T14:20:23;9.90;99.90
23124;DHT22;11731;48.592;8.858;2023-04-16T14:22:51;10.00;99.90
23124;DHT22;11731;48.592;8.858;2023-04-16T14:25:18;10.00;99.90
23124;DHT22;11731;48.592;8.858;2023-04-16T14:27:45;9.90;99.90
23124;DHT22;11731;48.592;8.858;2023-04-16T14:30:12;9.80;99.90
23124;DHT22;11731;48.592;8.858;2023-04-16T14:32:39;9.70;99.90
23124;DHT22;11731;48.592;8.858;2023-04-16T14:35:07;9.50;99.90
23124;DHT22;11731;48.592;8.858;2023-04-16T14:37:35;9.40;99.90
23124;DHT22;11731;48.592;8.858;2023-04-16T14:40:06;9.60;99.90
23124;DHT22;11731;48.592;8.858;2023-04-16T14:42:34;9.60;99.90
23124;DHT22;11731;48.592;8.858;2023-04-16T14:45:02;9.70;99.90
23124;DHT22;11731;48.592;8.858;2023-04-16T14:47:31;9.60;99.90
23124;DHT22;11731;48.592;8.858;2023-04-16T14:49:58;9.50;99.90
23124;DHT22;11731;48.592;8.858;2023-04-16T14:52:25;9.50;99.90
23124;DHT22;11731;48.592;8.858;2023-04-16T14:54:52;9.60;99.90
23124;DHT22;11731;48.592;8.858;2023-04-16T14:57:20;9.70;99.90
23124;DHT22;11731;48.592;8.858;2023-04-16T14:59:48;9.60;99.90
23124;DHT22;11731;48.592;8.858;2023-04-16T15:02:15;9.60;99.90
23124;DHT22;11731;48.592;8.858;2023-04-16T15:04:41;9.50;99.90
23124;DHT22;11731;48.592;8.858;2023-04-16T15:07:09;9.40;99.90
23124;DHT22;11731;48.592;8.858;2023-04-16T15:09:36;9.40;99.90
23124;DHT22;11731;48.592;8.858;2023-04-16T15:12:03;9.40;99.90
23124;DHT22;11731;48.592;8.858;2023-04-16T15:14:31;9.50;99.90
23124;DHT22;11731;48.592;8.858;2023-04-16T15:16:58;9.70;99.90
23124;DHT22;11731;48.592;8.858;2023-04-16T15:19:25;9.60;99.90
23124;DHT22;11731;48.592;8.858;2023-04-16T15:21:52;9.50;99.90
23124;DHT22;11731;48.592;8.858;2023-04-16T15:24:20;9.30;99.90
23124;DHT22;11731;48.592;8.858;2023-04-16T15:26:47;9.40;99.90
23124;DHT22;11731;48.592;8.858;2023-04-16T15:29:14;9.40;99.90
23124;DHT22;11731;48.592;8.858;2023-04-16T15:31:42;9.30;99.90
23124;DHT22;11731;48.592;8.858;2023-04-16T15:34:09;9.30;99.90
23124;DHT22;11731;48.592;8.858;2023-04-16T15:36:36;9.40;99.90
23124;DHT22;11731;48.592;8.858;2023-04-16T15:39:03;9.50;99.90
23124;DHT22;11731;48.592;8.858;2023-04-16T15:41:30;9.50;99.90
23124;DHT22;11731;48.592;8.858;2023-04-16T15:44:00;9.60;99.90
23124;DHT22;11731;48.592;8.858;2023-04-16T15:46:27;9.70;99.90
23124;DHT22;11731;48.592;8.858;2023-04-16T15:48:55;9.70;99.90
23124;DHT22;11731;48.592;8.858;2023-04-16T15:51:22;9.80;99.90
23124;DHT22;11731;48.592;8.858;2023-04-16T15:53:49;9.50;99.90
23124;DHT22;11731;48.592;8.858;2023-04-16T15:56:16;9.50;99.90
23124;DHT22;11731;48.592;8.858;2023-04-16T16:31:58;9.10;99.90
23124;DHT22;11731;48.592;8.858;2023-04-16T16:34:25;9.00;99.90
23124;DHT22;11731;48.592;8.858;2023-04-16T16:37:16;9.10;99.90
23124;DHT22;11731;48.592;8.858;2023-04-16T16:39:42;9.20;99.90
23124;DHT22;11731;48.592;8.858;2023-04-16T16:42:09;9.10;99.90
23124;DHT22;11731;48.592;8.858;2023-04-16T16:44:42;9.10;99.90
23124;DHT22;11731;48.592;8.858;2023-04-16T16:47:12;9.10;99.90
23124;DHT22;11731;48.592;8.858;2023-04-16T16:49:39;9.10;99.90
23124;DHT22;11731;48.592;8.858;2023-04-16T16:52:06;9.10;99.90
23124;DHT22;11731;48.592;8.858;2023-04-16T16:54:39;9.10;99.90
23124;DHT22;11731;48.592;8.858;2023-04-16T17:00:21;9.30;99.90
23124;DHT22;11731;48.592;8.858;2023-04-16T17:02:54;9.20;99.90
23124;DHT22;11731;48.592;8.858;2023-04-16T17:05:35;9.20;99.90
23124;DHT22;11731;48.592;8.858;2023-04-16T17:08:02;9.00;99.90
23124;DHT22;11731;48.592;8.858;2023-04-16T17:11:03;9.00;99.90
23124;DHT22;11731;48.592;8.858;2023-04-16T17:13:30;9.00;99.90
23124;DHT22;11731;48.592;8.858;2023-04-16T17:19:19;9.40;99.90
23124;DHT22;11731;48.592;8.858;2023-04-16T17:21:46;9.50;99.90
23124;DHT22;11731;48.592;8.858;2023-04-16T17:24:13;9.60;99.90
23124;DHT22;11731;48.592;8.858;2023-04-16T17:26:40;9.40;99.90
23124;DHT22;11731;48.592;8.858;2023-04-16T17:29:07;9.40;99.90
23124;DHT22;11731;48.592;8.858;2023-04-16T17:32:15;9.40;99.90
23124;DHT22;11731;48.592;8.858;2023-04-16T17:35:04;9.10;99.90
23124;DHT22;11731;48.592;8.858;2023-04-16T17:37:49;9.00;99.90
23124;DHT22;11731;48.592;8.858;2023-04-16T17:41:38;9.20;99.90
23124;DHT22;11731;48.592;8.858;2023-04-16T17:44:05;9.10;99.90
23124;DHT22;11731;48.592;8.858;2023-04-16T17:47:23;9.30;99.90
23124;DHT22;11731;48.592;8.858;2023-04-16T17:52:04;9.30;99.90
23124;DHT22;11731;48.592;8.858;2023-04-16T17:53:03;9.10;99.90
23124;DHT22;11731;48.592;8.858;2023-04-16T17:56:00;9.10;99.90
23124;DHT22;11731;48.592;8.858;2023-04-16T18:05:39;9.00;99.90
23124;DHT22;11731;48.592;8.858;2023-04-16T18:08:16;8.80;99.90
23124;DHT22;11731;48.592;8.858;2023-04-16T18:11:07;8.70;99.90
23124;DHT22;11731;48.592;8.858;2023-04-16T18:13:33;8.70;99.90
23124;DHT22;11731;48.592;8.858;2023-04-16T18:16:00;8.80;99.90
23124;DHT22;11731;48.592;8.858;2023-04-16T18:18:27;8.70;99.90
23124;DHT22;11731;48.592;8.858;2023-04-16T18:21:00;8.80;99.90
23124;DHT22;11731;48.592;8.858;2023-04-16T18:23:28;8.80;99.90
23124;DHT22;11731;48.592;8.858;2023-04-16T18:25:55;8.90;99.90
23124;DHT22;11731;48.592;8.858;2023-04-16T18:28:25;9.10;99.90
23124;DHT22;11731;48.592;8.858;2023-04-16T18:30:53;9.00;99.90
23124;DHT22;11731;48.592;8.858;2023-04-16T18:33:20;8.90;99.90
23124;DHT22;11731;48.592;8.858;2023-04-16T18:35:47;8.90;99.90
23124;DHT22;11731;48.592;8.858;2023-04-16T18:38:14;9.00;99.90
23124;DHT22;11731;48.592;8.858;2023-04-16T18:41:21;8.90;99.90
23124;DHT22;11731;48.592;8.858;2023-04-16T18:43:48;9.10;99.90
23124;DHT22;11731;48.592;8.858;2023-04-16T18:46:54;9.00;99.90
23124;DHT22;11731;48.592;8.858;2023-04-16T18:49:18;8.90;99.90
23124;DHT22;11731;48.592;8.858;2023-04-16T18:55:31;9.00;99.90
23124;DHT22;11731;48.592;8.858;2023-04-16T19:04:21;8.70;99.90
23124;DHT22;11731;48.592;8.858;2023-04-16T19:07:19;8.80;99.90
23124;DHT22;11731;48.592;8.858;2023-04-16T19:09:44;8.70;99.90
23124;DHT22;11731;48.592;8.858;2023-04-16T19:12:11;8.80;99.90
23124;DHT22;11731;48.592;8.858;2023-04-16T19:14:41;8.90;99.90
23124;DHT22;11731;48.592;8.858;2023-04-16T19:17:21;9.00;99.90
23124;DHT22;11731;48.592;8.858;2023-04-16T19:19:56;8.80;99.90
23124;DHT22;11731;48.592;8.858;2023-04-16T19:22:23;9.00;99.90
23124;DHT22;11731;48.592;8.858;2023-04-16T19:24:50;9.00;99.90
23124;DHT22;11731;48.592;8.858;2023-04-16T19:27:19;9.10;99.90
23124;DHT22;11731;48.592;8.858;2023-04-16T19:39:55;9.00;99.90
23124;DHT22;11731;48.592;8.858;2023-04-16T19:45:58;8.90;99.90
23124;DHT22;11731;48.592;8.858;2023-04-16T20:17:39;9.60;99.90
23124;DHT22;11731;48.592;8.858;2023-04-16T20:20:07;9.90;99.90
23124;DHT22;11731;48.592;8.858;2023-04-16T20:22:35;9.70;99.90
23124;DHT22;11731;48.592;8.858;2023-04-16T20:25:52;9.50;99.90
23124;DHT22;11731;48.592;8.858;2023-04-16T20:42:04;9.60;99.90
23124;DHT22;11731;48.592;8.858;2023-04-16T20:44:35;9.40;99.90
23124;DHT22;11731;48.592;8.858;2023-04-16T20:50:57;9.30;99.90
23124;DHT22;11731;48.592;8.858;2023-04-16T21:04:51;9.20;99.90
23124;DHT22;11731;48.592;8.858;2023-04-16T21:07:29;9.20;99.90
23124;DHT22;11731;48.592;8.858;2023-04-16T21:10:00;9.50;99.90
23124;DHT22;11731;48.592;8.858;2023-04-16T21:15:49;9.50;99.90
23124;DHT22;11731;48.592;8.858;2023-04-16T21:18:18;9.30;99.90
23124;DHT22;11731;48.592;8.858;2023-04-16T21:21:12;9.20;99.90
23124;DHT22;11731;48.592;8.858;2023-04-16T21:24:24;9.40;99.90
23124;DHT22;11731;48.592;8.858;2023-04-16T21:27:06;9.30;99.90
23124;DHT22;11731;48.592;8.858;2023-04-16T21:29:46;9.20;99.90
23124;DHT22;11731;48.592;8.858;2023-04-16T21:32:13;9.00;99.90
23124;DHT22;11731;48.592;8.858;2023-04-16T21:35:21;9.10;99.90
23124;DHT22;11731;48.592;8.858;2023-04-16T21:40:44;9.10;99.90
23124;DHT22;11731;48.592;8.858;2023-04-16T21:43:43;9.20;99.90
23124;DHT22;11731;48.592;8.858;2023-04-16T21:46:03;9.40;99.90
23124;DHT22;11731;48.592;8.858;2023-04-16T21:48:30;9.30;99.90
23124;DHT22;11731;48.592;8.858;2023-04-16T21:51:00;9.20;99.90
23124;DHT22;11731;48.592;8.858;2023-04-16T22:03:26;9.10;99.90
23124;DHT22;11731;48.592;8.858;2023-04-16T22:05:57;9.40;99.90
23124;DHT22;11731;48.592;8.858;2023-04-16T22:08:25;9.30;99.90
23124;DHT22;11731;48.592;8.858;2023-04-16T22:13:23;9.30;99.90
23124;DHT22;11731;48.592;8.858;2023-04-16T22:15:28;9.20;99.90
23124;DHT22;11731;48.592;8.858;2023-04-16T22:17:31;9.20;99.90
23124;DHT22;11731;48.592;8.858;2023-04-16T22:23:10;9.20;99.90
23124;DHT22;11731;48.592;8.858;2023-04-16T22:25:53;9.20;99.90
23124;DHT22;11731;48.592;8.858;2023-04-16T22:28:24;9.10;99.90
23124;DHT22;11731;48.592;8.858;2023-04-16T22:30:51;9.10;99.90
23124;DHT22;11731;48.592;8.858;2023-04-16T22:33:30;9.00;99.90
23124;DHT22;11731;48.592;8.858;2023-04-16T22:37:06;8.90;99.90
23124;DHT22;11731;48.592;8.858;2023-04-16T22:39:06;8.80;99.90
23124;DHT22;11731;48.592;8.858;2023-04-16T22:41:33;8.80;99.90
23124;DHT22;11731;48.592;8.858;2023-04-16T22:44:01;8.70;99.90
23124;DHT22;11731;48.592;8.858;2023-04-16T22:46:28;8.90;99.90